createdAt,value
2022-09-27T00:00:01.143Z,18.80
2022-09-27T00:02:29.515Z,17.47
2022-09-27T00:04:59.399Z,17.53
2022-09-27T00:07:27.751Z,16.77
2022-09-27T00:09:56.109Z,15.63
2022-09-27T00:12:24.485Z,16.20
2022-09-27T00:14:52.885Z,16.90
2022-09-27T00:17:21.218Z,16.53
2022-09-27T00:19:49.593Z,17.60
2022-09-27T00:22:19.218Z,15.73
2022-09-27T00:24:47.485Z,17.13
2022-09-27T00:27:15.876Z,18.37
2022-09-27T00:29:45.455Z,18.17
2022-09-27T00:32:14.536Z,16.87
2022-09-27T00:34:43.672Z,17.60
2022-09-27T00:37:12.568Z,17.73
2022-09-27T00:39:42.427Z,17.30
2022-09-27T00:42:12.298Z,17.60
2022-09-27T00:45:02.072Z,17.90
2022-09-27T00:47:36.128Z,19.60
2022-09-27T00:50:09.114Z,19.03
2022-09-27T00:52:44.553Z,18.13
2022-09-27T00:55:17.345Z,17.37
2022-09-27T00:57:47.455Z,18.67
2022-09-27T01:00:17.404Z,17.23
2022-09-27T01:02:48.989Z,17.13
2022-09-27T01:05:21.177Z,16.43
2022-09-27T01:07:49.806Z,17.30
2022-09-27T01:10:21.600Z,17.57
2022-09-27T01:13:00.576Z,17.27
2022-09-27T01:15:38.475Z,16.40
2022-09-27T01:18:25.058Z,16.60
2022-09-27T01:21:35.249Z,16.63
2022-09-27T01:24:37.341Z,17.57
2022-09-27T01:27:39.254Z,15.50
2022-09-27T01:30:21.508Z,16.33
2022-09-27T01:33:03.875Z,16.27
2022-09-27T01:35:39.874Z,15.73
2022-09-27T01:38:16.573Z,15.87
2022-09-27T01:40:54.275Z,16.00
2022-09-27T01:43:48.028Z,16.53
2022-09-27T01:46:27.031Z,15.70
2022-09-27T01:49:27.804Z,16.87
2022-09-27T01:51:59.983Z,17.43
2022-09-27T01:54:37.402Z,17.10
2022-09-27T01:57:45.250Z,16.33
2022-09-27T02:00:20.783Z,15.97
2022-09-27T02:02:54.057Z,16.23
2022-09-27T02:05:36.645Z,16.73
2022-09-27T02:08:27.875Z,15.00
2022-09-27T02:11:01.286Z,15.13
2022-09-27T02:13:39.813Z,15.40
2022-09-27T02:16:37.455Z,15.20
2022-09-27T02:19:14.224Z,14.33
2022-09-27T02:21:51.929Z,14.43
2022-09-27T02:24:25.800Z,14.87
2022-09-27T02:27:00.708Z,14.23
2022-09-27T02:29:36.249Z,15.03
2022-09-27T02:32:04.868Z,15.17
2022-09-27T02:34:38.660Z,14.80
2022-09-27T02:37:07.687Z,15.10
2022-09-27T02:39:36.488Z,15.97
2022-09-27T02:42:08.939Z,15.83
2022-09-27T02:44:39.507Z,15.53
2022-09-27T02:47:38.225Z,14.90
2022-09-27T02:50:38.658Z,16.40
2022-09-27T02:53:41.047Z,15.13
2022-09-27T02:56:43.152Z,15.27
2022-09-27T02:59:36.817Z,15.40
2022-09-27T03:02:37.264Z,18.87
2022-09-27T03:05:38.349Z,15.90
2022-09-27T03:08:08.144Z,16.07
2022-09-27T03:10:36.515Z,16.60
2022-09-27T03:13:05.010Z,16.37
2022-09-27T03:15:33.819Z,15.00
2022-09-27T03:18:02.292Z,15.53
2022-09-27T03:20:50.678Z,17.00
2022-09-27T03:23:20.834Z,16.67
2022-09-27T03:25:49.925Z,16.10
2022-09-27T03:28:18.986Z,15.80
2022-09-27T03:30:48.481Z,15.57
2022-09-27T03:33:36.741Z,16.50
2022-09-27T03:36:12.059Z,15.03
2022-09-27T03:38:40.509Z,13.93
2022-09-27T03:41:12.744Z,16.07
2022-09-27T03:43:41.448Z,15.53
2022-09-27T03:46:09.841Z,16.40
2022-09-27T03:48:38.597Z,16.23
2022-09-27T03:51:07.156Z,18.33
2022-09-27T03:53:37.639Z,18.57
2022-09-27T03:56:06.537Z,16.80
2022-09-27T03:58:35.756Z,22.47
2022-09-27T04:01:04.640Z,24.53
2022-09-27T04:03:36.147Z,20.63
2022-09-27T04:06:27.324Z,17.13
2022-09-27T04:08:57.427Z,17.80
2022-09-27T04:11:34.538Z,18.37
2022-09-27T04:14:05.225Z,17.23
2022-09-27T04:16:40.369Z,27.87
2022-09-27T04:19:34.217Z,17.60
2022-09-27T04:22:10.908Z,24.77
2022-09-27T04:24:40.986Z,34.63
2022-09-27T04:27:24.044Z,21.87
2022-09-27T04:29:52.995Z,19.70
2022-09-27T04:32:45.437Z,23.67
2022-09-27T04:35:49.326Z,16.83
2022-09-27T04:38:20.288Z,15.63
2022-09-27T04:40:50.707Z,25.03
2022-09-27T04:43:19.583Z,23.17
2022-09-27T04:45:48.031Z,94.63
2022-09-27T04:48:16.613Z,87.30
2022-09-27T04:50:45.026Z,44.63
2022-09-27T04:53:15.415Z,30.80
2022-09-27T04:55:47.420Z,110.20
2022-09-27T04:58:17.906Z,88.63
2022-09-27T05:00:47.880Z,93.00
2022-09-27T05:03:36.555Z,23.83
2022-09-27T05:06:12.819Z,16.27
2022-09-27T05:08:41.371Z,16.47
2022-09-27T05:11:38.083Z,98.47
2022-09-27T05:14:30.795Z,18.00
2022-09-27T05:17:24.034Z,40.13
2022-09-27T05:19:52.593Z,119.67
2022-09-27T05:22:41.835Z,57.50
2022-09-27T05:25:11.155Z,40.67
2022-09-27T05:27:39.656Z,19.73
2022-09-27T05:30:09.964Z,78.20
2022-09-27T05:32:51.526Z,97.70
2022-09-27T05:35:28.870Z,65.73
2022-09-27T05:38:00.869Z,184.20
2022-09-27T05:40:41.674Z,154.70
2022-09-27T05:43:11.578Z,143.80
2022-09-27T05:45:41.436Z,53.90
2022-09-27T05:48:10.018Z,70.83
2022-09-27T05:50:45.823Z,100.00
2022-09-27T05:53:14.434Z,27.43
2022-09-27T05:55:43.625Z,18.07
2022-09-27T05:58:16.530Z,122.07
2022-09-27T06:00:55.389Z,109.07
2022-09-27T06:03:50.060Z,27.70
2022-09-27T06:06:47.617Z,59.87
2022-09-27T06:09:17.671Z,52.00
2022-09-27T06:11:48.048Z,22.53
2022-09-27T06:14:18.410Z,109.37
2022-09-27T06:17:08.250Z,59.43
2022-09-27T06:19:41.007Z,26.93
2022-09-27T06:22:09.636Z,62.13
2022-09-27T06:24:52.460Z,39.57
2022-09-27T06:27:26.398Z,32.27
2022-09-27T06:30:20.903Z,40.27
2022-09-27T06:32:59.127Z,29.57
2022-09-27T06:35:33.918Z,19.17
2022-09-27T06:38:05.265Z,19.57
2022-09-27T06:40:34.128Z,22.07
2022-09-27T06:43:22.248Z,23.13
2022-09-27T06:46:13.732Z,22.60
2022-09-27T06:49:18.835Z,19.63
2022-09-27T06:51:48.740Z,18.60
2022-09-27T06:54:17.129Z,19.97
2022-09-27T06:56:45.595Z,20.53
2022-09-27T06:59:31.264Z,22.10
2022-09-27T07:02:18.821Z,23.03
2022-09-27T07:05:21.687Z,18.73
2022-09-27T07:08:08.395Z,17.17
2022-09-27T07:10:38.004Z,17.73
2022-09-27T07:13:08.075Z,17.10
2022-09-27T07:15:37.335Z,17.37
2022-09-27T07:18:10.315Z,18.53
2022-09-27T07:20:41.306Z,18.70
2022-09-27T07:23:11.859Z,16.80
2022-09-27T07:25:40.276Z,16.80
2022-09-27T07:28:12.715Z,18.13
2022-09-27T07:30:41.690Z,16.87
2022-09-27T07:33:10.864Z,16.47
2022-09-27T07:35:43.645Z,17.50
2022-09-27T07:38:14.147Z,17.30
2022-09-27T07:40:42.939Z,17.93
2022-09-27T07:43:12.343Z,19.50
2022-09-27T07:45:41.704Z,19.60
2022-09-27T07:48:25.477Z,19.67
2022-09-27T07:51:07.798Z,24.10
2022-09-27T07:53:47.953Z,20.73
2022-09-27T07:56:48.333Z,21.80
2022-09-27T07:59:19.227Z,19.80
2022-09-27T08:01:47.616Z,23.47
2022-09-27T08:04:15.963Z,26.90
2022-09-27T08:06:45.626Z,33.67
2022-09-27T08:09:14.104Z,28.07
2022-09-27T08:11:44.896Z,28.63
2022-09-27T08:14:14.896Z,25.30
2022-09-27T08:16:46.083Z,21.60
2022-09-27T08:19:15.200Z,23.27
2022-09-27T08:21:49.658Z,20.87
2022-09-27T08:24:24.194Z,20.90
2022-09-27T08:27:15.849Z,20.43
2022-09-27T08:29:49.672Z,20.73
2022-09-27T08:32:23.057Z,20.23
2022-09-27T08:34:52.493Z,21.93
2022-09-27T08:37:24.317Z,20.37
2022-09-27T08:39:52.804Z,20.97
2022-09-27T08:42:32.779Z,20.53
2022-09-27T08:45:09.301Z,21.03
2022-09-27T08:47:42.062Z,22.20
2022-09-27T08:50:22.671Z,19.73
2022-09-27T08:52:57.765Z,20.87
2022-09-27T08:55:33.298Z,21.80
2022-09-27T08:58:02.386Z,22.30
2022-09-27T09:00:32.049Z,21.50
2022-09-27T09:03:03.705Z,22.03
2022-09-27T09:05:37.683Z,22.03
2022-09-27T09:08:32.445Z,21.57
2022-09-27T09:11:28.436Z,20.20
2022-09-27T09:14:27.624Z,19.73
2022-09-27T09:17:05.984Z,19.83
2022-09-27T09:19:55.768Z,20.67
2022-09-27T09:22:59.559Z,24.33
2022-09-27T09:25:36.798Z,25.27
2022-09-27T09:28:15.534Z,24.73
2022-09-27T09:30:56.684Z,25.33
2022-09-27T09:33:31.027Z,25.10
2022-09-27T09:36:05.504Z,28.00
2022-09-27T09:38:40.113Z,27.73
2022-09-27T09:41:17.204Z,29.37
2022-09-27T09:43:51.357Z,29.23
2022-09-27T09:46:26.275Z,26.93
2022-09-27T09:49:07.226Z,26.90
2022-09-27T09:51:40.734Z,26.90
2022-09-27T09:54:20.858Z,26.50
2022-09-27T09:56:57.350Z,28.60
2022-09-27T09:59:30.577Z,31.77
2022-09-27T10:02:09.110Z,31.03
2022-09-27T10:04:37.638Z,35.30
2022-09-27T10:07:06.117Z,35.40
2022-09-27T10:09:37.317Z,36.40
2022-09-27T10:12:45.863Z,34.27
2022-09-27T10:15:18.327Z,38.37
2022-09-27T10:17:51.542Z,35.60
2022-09-27T10:20:29.844Z,38.60
2022-09-27T10:23:04.903Z,36.17
2022-09-27T10:25:55.384Z,37.00
2022-09-27T10:28:43.588Z,35.40
2022-09-27T10:31:18.129Z,37.37
2022-09-27T10:34:02.251Z,36.67
2022-09-27T10:36:38.774Z,39.20
2022-09-27T10:39:21.882Z,33.97
2022-09-27T10:41:50.356Z,33.43
2022-09-27T10:44:38.643Z,36.67
2022-09-27T10:47:22.876Z,32.43
2022-09-27T10:50:07.931Z,35.30
2022-09-27T10:53:04.843Z,33.20
2022-09-27T10:55:36.285Z,37.93
2022-09-27T10:58:05.976Z,35.53
2022-09-27T11:00:38.541Z,35.67
2022-09-27T11:03:14.168Z,36.27
2022-09-27T11:05:43.371Z,36.17
2022-09-27T11:08:26.685Z,34.30
2022-09-27T11:11:20.067Z,34.93
2022-09-27T11:14:08.131Z,42.73
2022-09-27T11:17:00.832Z,37.20
2022-09-27T11:19:46.134Z,37.70
2022-09-27T11:22:41.478Z,38.07
2022-09-27T11:25:21.163Z,36.70
2022-09-27T11:28:23.593Z,38.90
2022-09-27T11:31:03.396Z,33.37
2022-09-27T11:33:59.823Z,32.47
2022-09-27T11:36:43.809Z,34.80
2022-09-27T11:39:22.211Z,33.47
2022-09-27T11:42:07.287Z,35.57
2022-09-27T11:45:13.493Z,32.80
2022-09-27T11:47:53.523Z,29.73
2022-09-27T11:50:46.681Z,27.00
2022-09-27T11:53:28.947Z,28.43
2022-09-27T11:56:13.528Z,25.80
2022-09-27T11:58:50.745Z,28.27
2022-09-27T12:01:29.890Z,29.23
2022-09-27T12:04:30.863Z,30.10
2022-09-27T12:07:13.095Z,27.83
2022-09-27T12:09:46.829Z,26.73
2022-09-27T12:12:20.155Z,25.30
2022-09-27T12:14:54.436Z,26.83
2022-09-27T12:17:26.248Z,30.03
2022-09-27T12:19:58.620Z,29.57
2022-09-27T12:22:59.068Z,27.93
2022-09-27T12:26:07.516Z,24.77
2022-09-27T12:28:42.095Z,24.00
2022-09-27T12:31:28.932Z,24.57
2022-09-27T12:34:14.210Z,22.77
2022-09-27T12:36:50.314Z,21.03
2022-09-27T12:39:24.761Z,20.67
2022-09-27T12:42:06.184Z,18.67
2022-09-27T12:44:47.615Z,16.13
2022-09-27T12:47:38.077Z,11.03
2022-09-27T12:50:23.884Z,10.33
2022-09-27T12:52:57.098Z,10.70
2022-09-27T12:55:54.814Z,11.10
2022-09-27T12:58:59.665Z,10.10
2022-09-27T13:01:53.892Z,10.27
2022-09-27T13:04:37.236Z,10.47
2022-09-27T13:07:23.238Z,10.90
2022-09-27T13:10:33.044Z,10.40
2022-09-27T13:13:12.997Z,10.90
2022-09-27T13:15:45.280Z,11.13
2022-09-27T13:18:34.684Z,10.20
2022-09-27T13:21:05.326Z,10.50
2022-09-27T13:23:52.779Z,10.03
2022-09-27T13:26:45.208Z,9.57
2022-09-27T13:29:34.409Z,9.67
2022-09-27T13:32:22.701Z,8.20
2022-09-27T13:35:22.053Z,8.03
2022-09-27T13:38:07.148Z,7.70
2022-09-27T13:40:46.343Z,7.10
2022-09-27T13:43:44.638Z,7.40
2022-09-27T13:46:36.357Z,6.63
2022-09-27T13:49:15.273Z,7.10
2022-09-27T13:52:21.923Z,7.30
2022-09-27T13:55:03.910Z,6.67
2022-09-27T13:57:44.207Z,6.73
2022-09-27T14:00:19.909Z,6.30
2022-09-27T14:03:27.934Z,5.70
2022-09-27T14:06:18.507Z,6.17
2022-09-27T14:08:50.267Z,6.43
2022-09-27T14:11:23.119Z,5.97
2022-09-27T14:13:53.151Z,6.37
2022-09-27T14:16:24.060Z,5.83
2022-09-27T14:18:58.196Z,5.40
2022-09-27T14:21:41.683Z,5.10
2022-09-27T14:24:31.598Z,5.73
2022-09-27T14:27:14.191Z,4.90
2022-09-27T14:29:46.757Z,5.00
2022-09-27T14:32:21.788Z,4.63
2022-09-27T14:35:31.796Z,5.37
2022-09-27T14:38:07.504Z,4.90
2022-09-27T14:40:55.700Z,4.87
2022-09-27T14:43:24.144Z,5.33
2022-09-27T14:45:54.510Z,5.20
2022-09-27T14:48:24.538Z,5.23
2022-09-27T14:51:04.816Z,5.70
2022-09-27T14:53:37.435Z,5.60
2022-09-27T14:56:07.146Z,5.70
2022-09-27T14:58:47.270Z,6.00
2022-09-27T15:01:17.476Z,6.43
2022-09-27T15:03:48.872Z,6.20
2022-09-27T15:06:20.151Z,5.53
2022-09-27T15:08:50.430Z,6.30
2022-09-27T15:11:19.607Z,6.10
2022-09-27T15:13:52.633Z,6.43
2022-09-27T15:16:24.538Z,6.20
2022-09-27T15:19:02.535Z,6.43
2022-09-27T15:21:33.808Z,6.30
2022-09-27T15:24:03.044Z,6.30
2022-09-27T15:26:38.650Z,6.60
2022-09-27T15:29:07.283Z,6.50
2022-09-27T15:31:37.576Z,6.40
2022-09-27T15:34:06.961Z,6.20
2022-09-27T15:36:55.884Z,6.53
2022-09-27T15:39:30.167Z,6.43
2022-09-27T15:42:05.103Z,6.57
2022-09-27T15:44:39.764Z,6.60
2022-09-27T15:47:43.447Z,6.90
2022-09-27T15:50:37.487Z,6.40
2022-09-27T15:53:09.248Z,6.97
2022-09-27T15:55:42.731Z,6.97
2022-09-27T15:58:16.610Z,7.10
2022-09-27T16:00:55.794Z,7.40
2022-09-27T16:03:24.979Z,7.00
2022-09-27T16:05:56.109Z,7.50
2022-09-27T16:08:26.699Z,7.13
2022-09-27T16:10:56.434Z,7.20
2022-09-27T16:13:30.143Z,7.00
2022-09-27T16:16:01.300Z,7.50
2022-09-27T16:18:31.068Z,7.47
2022-09-27T16:20:59.759Z,6.67
2022-09-27T16:23:29.363Z,7.70
2022-09-27T16:25:57.725Z,7.23
2022-09-27T16:28:26.046Z,7.63
2022-09-27T16:30:54.365Z,7.80
2022-09-27T16:33:22.735Z,7.80
2022-09-27T16:35:52.114Z,7.90
2022-09-27T16:38:20.416Z,8.67
2022-09-27T16:40:50.030Z,7.60
2022-09-27T16:43:20.007Z,7.83
2022-09-27T16:45:48.726Z,7.93
2022-09-27T16:48:17.025Z,8.07
2022-09-27T16:51:02.459Z,7.13
2022-09-27T16:53:31.271Z,8.07
2022-09-27T16:56:01.969Z,7.63
2022-09-27T16:58:31.114Z,7.67
2022-09-27T17:01:00.075Z,7.63
2022-09-27T17:03:28.687Z,7.53
2022-09-27T17:06:04.102Z,6.97
2022-09-27T17:08:32.463Z,7.30
2022-09-27T17:11:02.088Z,6.30
2022-09-27T17:13:30.349Z,7.60
2022-09-27T17:15:58.730Z,6.77
2022-09-27T17:18:27.177Z,7.60
2022-09-27T17:21:01.645Z,7.60
2022-09-27T17:23:30.077Z,7.20
2022-09-27T17:26:06.147Z,8.20
2022-09-27T17:28:35.001Z,7.57
2022-09-27T17:31:08.905Z,8.00
2022-09-27T17:33:41.900Z,7.80
2022-09-27T17:36:12.436Z,8.67
2022-09-27T17:38:42.204Z,8.20
2022-09-27T17:41:13.886Z,8.80
2022-09-27T17:43:50.262Z,9.40
2022-09-27T17:46:20.412Z,9.10
2022-09-27T17:49:07.396Z,9.60
2022-09-27T17:51:37.939Z,8.57
2022-09-27T17:54:09.383Z,9.20
2022-09-27T17:56:39.926Z,9.40
2022-09-27T17:59:09.677Z,10.07
2022-09-27T18:01:38.945Z,10.33
2022-09-27T18:04:10.076Z,9.50
2022-09-27T18:06:40.441Z,9.83
2022-09-27T18:09:10.651Z,9.60
2022-09-27T18:11:41.161Z,9.73
2022-09-27T18:14:10.757Z,9.27
2022-09-27T18:16:43.002Z,10.03
2022-09-27T18:19:13.420Z,9.70
2022-09-27T18:21:41.886Z,10.20
2022-09-27T18:24:10.954Z,11.23
2022-09-27T18:26:40.827Z,10.97
2022-09-27T18:29:14.264Z,11.63
2022-09-27T18:31:48.233Z,12.07
2022-09-27T18:34:18.534Z,12.10
2022-09-27T18:36:47.624Z,10.63
2022-09-27T18:39:19.382Z,10.13
2022-09-27T18:41:49.576Z,10.20
2022-09-27T18:44:19.102Z,10.13
2022-09-27T18:46:47.996Z,10.33
2022-09-27T18:49:16.566Z,10.43
2022-09-27T18:51:47.257Z,9.80
2022-09-27T18:54:18.635Z,10.90
2022-09-27T18:56:50.253Z,11.00
2022-09-27T18:59:19.789Z,11.20
2022-09-27T19:01:48.393Z,11.40
2022-09-27T19:04:24.036Z,11.40
2022-09-27T19:06:53.172Z,10.87
2022-09-27T19:09:21.635Z,10.90
2022-09-27T19:11:56.658Z,11.00
2022-09-27T19:14:25.074Z,11.33
2022-09-27T19:16:53.354Z,10.63
2022-09-27T19:19:22.188Z,10.17
2022-09-27T19:21:50.904Z,10.63
2022-09-27T19:24:19.765Z,10.93
2022-09-27T19:26:48.417Z,10.23
2022-09-27T19:29:18.145Z,9.87
2022-09-27T19:31:46.687Z,12.87
2022-09-27T19:34:15.454Z,11.20
2022-09-27T19:36:43.724Z,10.23
2022-09-27T19:39:12.070Z,11.33
2022-09-27T19:41:40.420Z,10.67
2022-09-27T19:44:08.739Z,11.10
2022-09-27T19:46:39.281Z,10.97
2022-09-27T19:49:07.730Z,10.30
2022-09-27T19:51:36.023Z,10.30
2022-09-27T19:54:05.247Z,10.47
2022-09-27T19:56:34.107Z,10.17
2022-09-27T19:59:06.896Z,9.23
2022-09-27T20:01:35.833Z,9.77
2022-09-27T20:04:05.486Z,9.30
2022-09-27T20:06:34.611Z,9.23
2022-09-27T20:09:03.778Z,9.53
2022-09-27T20:11:34.030Z,9.87
2022-09-27T20:14:02.522Z,8.77
2022-09-27T20:16:30.926Z,8.67
2022-09-27T20:19:00.865Z,9.63
2022-09-27T20:21:32.795Z,9.20
2022-09-27T20:24:02.707Z,8.90
2022-09-27T20:26:34.565Z,8.27
2022-09-27T20:29:04.907Z,8.30
2022-09-27T20:31:36.898Z,8.20
2022-09-27T20:34:06.731Z,7.97
2022-09-27T20:36:38.167Z,7.60
2022-09-27T20:39:07.995Z,8.50
2022-09-27T20:41:38.738Z,8.30
2022-09-27T20:44:09.174Z,7.80
2022-09-27T20:46:39.686Z,7.93
2022-09-27T20:49:10.020Z,7.27
2022-09-27T20:51:41.627Z,8.13
2022-09-27T20:54:11.895Z,7.47
2022-09-27T20:56:42.088Z,7.87
2022-09-27T20:59:16.282Z,7.50
2022-09-27T21:01:46.176Z,8.33
2022-09-27T21:04:17.103Z,7.60
2022-09-27T21:06:47.199Z,7.87
2022-09-27T21:09:19.129Z,7.80
2022-09-27T21:11:48.490Z,7.97
2022-09-27T21:14:17.150Z,7.30
2022-09-27T21:16:45.449Z,7.67
2022-09-27T21:19:13.978Z,7.70
2022-09-27T21:21:42.456Z,7.50
2022-09-27T21:24:12.374Z,8.30
2022-09-27T21:26:40.756Z,8.20
2022-09-27T21:29:11.741Z,8.83
2022-09-27T21:31:40.280Z,8.30
2022-09-27T21:34:08.701Z,8.30
2022-09-27T21:36:38.974Z,9.37
2022-09-27T21:39:09.467Z,8.60
2022-09-27T21:41:40.037Z,8.93
2022-09-27T21:44:09.175Z,8.97
2022-09-27T21:46:41.449Z,8.80
2022-09-27T21:49:11.139Z,8.60
2022-09-27T21:51:41.772Z,9.80
2022-09-27T21:54:13.505Z,9.87
2022-09-27T21:56:44.616Z,9.70
2022-09-27T21:59:16.161Z,9.80
2022-09-27T22:01:46.118Z,10.10
2022-09-27T22:04:14.856Z,9.97
2022-09-27T22:06:44.246Z,10.13
2022-09-27T22:09:15.458Z,9.77
2022-09-27T22:11:47.558Z,10.37
2022-09-27T22:14:17.847Z,9.83
2022-09-27T22:16:46.158Z,10.07
2022-09-27T22:19:15.936Z,10.37
2022-09-27T22:21:44.855Z,9.53
2022-09-27T22:24:14.919Z,9.47
2022-09-27T22:26:48.226Z,9.37
2022-09-27T22:29:16.965Z,9.20
2022-09-27T22:31:45.446Z,9.80
2022-09-27T22:34:18.684Z,10.60
2022-09-27T22:36:47.664Z,9.60
2022-09-27T22:39:16.256Z,9.40
2022-09-27T22:41:46.116Z,10.00
2022-09-27T22:44:14.396Z,10.17
2022-09-27T22:46:42.809Z,10.70
2022-09-27T22:49:11.047Z,10.67
2022-09-27T22:51:39.615Z,10.50
2022-09-27T22:54:07.966Z,10.40
2022-09-27T22:56:36.248Z,10.00
2022-09-27T22:59:05.945Z,10.70
2022-09-27T23:01:36.223Z,10.80
2022-09-27T23:04:04.618Z,10.17
2022-09-27T23:06:33.493Z,9.57
2022-09-27T23:09:02.779Z,10.00
2022-09-27T23:11:31.716Z,9.83
2022-09-27T23:14:00.069Z,9.80
2022-09-27T23:16:29.764Z,9.67
2022-09-27T23:18:58.386Z,9.57
2022-09-27T23:21:28.722Z,9.50
2022-09-27T23:23:59.889Z,10.53
2022-09-27T23:26:29.094Z,10.20
2022-09-27T23:28:58.745Z,9.97
2022-09-27T23:31:29.728Z,9.83
2022-09-27T23:34:03.186Z,9.90
2022-09-27T23:36:31.481Z,10.27
2022-09-27T23:39:01.566Z,10.47
2022-09-27T23:41:30.186Z,10.23
2022-09-27T23:43:58.492Z,10.27
2022-09-27T23:46:26.893Z,10.27
2022-09-27T23:48:58.930Z,10.60
2022-09-27T23:51:28.544Z,10.53
2022-09-27T23:53:58.213Z,11.20
2022-09-27T23:56:26.776Z,10.97
2022-09-27T23:58:54.994Z,11.33
